Time;durP1;ratioP1;P1;durP2;ratioP2;P2;SDS_P1;SDS_P2;PMS_P1;PMS_P2;Temp;Humidity;BMP_temperature;BMP_pressure;BME280_temperature;BME280_humidity;BME280_pressure;Samples;Min_cycle;Max_cycle;Signal;HPM_P1;HPM_P2
2024/01/24 00:00:28;;;;;;;8.98;6.00;;;;;;;7.63;100.00;100084.19;10443670;28;20062;-79
2024/01/24 00:05:31;;;;;;;8.55;5.22;;;;;;;7.66;100.00;100090.16;10477722;28;20063;-78
2024/01/24 00:10:34;;;;;;;8.35;5.57;;;;;;;7.74;100.00;100078.91;10467542;28;20102;-81
2024/01/24 00:15:39;;;;;;;9.07;6.80;;;;;;;8.00;100.00;100066.22;10451955;28;21039;-80
2024/01/24 00:20:42;;;;;;;7.47;4.90;;;;;;;7.87;100.00;100066.31;10442887;28;20041;-80
2024/01/24 00:25:45;;;;;;;4.50;3.20;;;;;;;7.93;100.00;100065.00;10443512;28;20056;-80
2024/01/24 00:30:49;;;;;;;7.68;5.07;;;;;;;8.16;100.00;100023.13;10450338;28;20044;-80
2024/01/24 00:35:53;;;;;;;10.00;6.22;;;;;;;8.05;100.00;100004.38;10439993;28;20131;-79
2024/01/24 00:40:56;;;;;;;6.05;4.28;;;;;;;8.17;100.00;99996.28;10448502;28;20056;-80
2024/01/24 00:46:00;;;;;;;11.80;7.07;;;;;;;8.11;100.00;99994.03;10454244;28;20041;-80
2024/01/24 00:51:04;;;;;;;9.63;6.32;;;;;;;8.30;100.00;100003.34;10434693;28;20551;-79
2024/01/24 00:56:07;;;;;;;12.30;6.40;;;;;;;8.50;100.00;99999.13;10441975;28;20812;-80
2024/01/24 01:01:11;;;;;;;9.02;6.00;;;;;;;8.35;100.00;99998.47;10434837;28;20727;-79
2024/01/24 01:06:14;;;;;;;9.40;5.70;;;;;;;8.29;100.00;99970.38;10439474;28;20094;-80
2024/01/24 01:11:18;;;;;;;10.70;5.57;;;;;;;8.54;100.00;99939.03;10441146;28;20129;-79
2024/01/24 01:16:23;;;;;;;24.15;6.00;;;;;;;8.62;100.00;99928.56;10442505;28;20045;-80
2024/01/24 01:21:26;;;;;;;12.73;6.38;;;;;;;8.83;100.00;99937.56;10430841;28;20102;-80
2024/01/24 01:26:32;;;;;;;10.35;5.78;;;;;;;8.89;100.00;99960.31;10441935;28;20653;-79
2024/01/24 01:31:36;;;;;;;10.30;5.88;;;;;;;8.82;100.00;99951.91;10437332;28;20238;-78
2024/01/24 01:36:41;;;;;;;8.52;4.80;;;;;;;8.82;100.00;99993.91;10432109;28;20048;-79
2024/01/24 01:41:48;;;;;;;9.85;4.13;;;;;;;8.74;100.00;99964.22;10440486;28;20052;-81
2024/01/24 01:46:52;;;;;;;12.25;5.28;;;;;;;9.09;100.00;99955.16;10432973;28;20452;-80
2024/01/24 01:51:56;;;;;;;13.80;4.95;;;;;;;8.88;100.00;99902.34;10431242;28;20052;-78
2024/01/24 01:57:01;;;;;;;15.13;6.57;;;;;;;9.09;100.00;99936.41;10438395;28;20053;-79
2024/01/24 02:02:05;;;;;;;14.32;8.15;;;;;;;9.43;100.00;99903.13;10446332;28;20439;-80
2024/01/24 02:07:08;;;;;;;11.50;5.47;;;;;;;9.20;100.00;99942.56;10427472;28;20704;-80
2024/01/24 02:12:11;;;;;;;13.20;7.68;;;;;;;9.50;100.00;99915.03;10438684;28;20045;-80
2024/01/24 02:17:16;;;;;;;9.82;5.68;;;;;;;9.20;100.00;99891.66;10461430;28;20057;-78
2024/01/24 02:22:19;;;;;;;10.18;6.85;;;;;;;9.35;100.00;99902.94;10438347;28;20076;-81
2024/01/24 02:27:23;;;;;;;9.18;6.38;;;;;;;9.41;100.00;99912.31;10444064;28;20048;-79
2024/01/24 02:32:26;;;;;;;7.50;6.10;;;;;;;9.26;100.00;99898.34;10439766;28;20045;-81
2024/01/24 02:37:29;;;;;;;8.88;6.25;;;;;;;9.21;100.00;99893.34;10431111;28;20049;-79
2024/01/24 02:42:33;;;;;;;11.68;7.00;;;;;;;9.35;100.00;99897.59;10439905;28;20041;-80
2024/01/24 02:47:37;;;;;;;8.65;5.65;;;;;;;9.22;100.00;99876.31;10438645;28;20052;-81
2024/01/24 02:52:40;;;;;;;9.40;6.40;;;;;;;9.34;100.00;99878.94;10438247;28;20057;-78
2024/01/24 02:57:44;;;;;;;9.43;5.45;;;;;;;9.35;100.00;99865.41;10437432;28;20036;-78
2024/01/24 03:02:48;;;;;;;15.57;7.32;;;;;;;9.35;100.00;99835.94;10444511;28;20056;-80
2024/01/24 03:07:51;;;;;;;9.88;7.55;;;;;;;9.49;100.00;99835.59;10429817;28;20527;-80
2024/01/24 03:12:55;;;;;;;12.27;6.07;;;;;;;9.36;100.00;99829.59;10442710;28;20037;-80
2024/01/24 03:17:58;;;;;;;7.78;5.40;;;;;;;9.46;100.00;99853.75;10437636;28;20059;-80
2024/01/24 03:23:01;;;;;;;8.18;6.55;;;;;;;9.61;100.00;99840.91;10432798;28;20806;-81
2024/01/24 03:28:09;;;;;;;7.35;6.50;;;;;;;9.69;100.00;99790.13;10438059;28;20048;-80
2024/01/24 03:33:11;;;;;;;8.23;6.03;;;;;;;9.91;100.00;99800.72;10437649;28;20069;-79
2024/01/24 03:38:15;;;;;;;8.05;4.93;;;;;;;10.03;100.00;99803.31;10436955;28;20574;-82
2024/01/24 03:43:19;;;;;;;5.15;3.97;;;;;;;9.99;100.00;99792.00;10432824;28;20045;-81
2024/01/24 03:48:22;;;;;;;6.53;4.15;;;;;;;9.80;100.00;99818.72;10441002;28;20036;-80
2024/01/24 03:53:25;;;;;;;4.90;3.75;;;;;;;9.71;100.00;99825.72;10425950;28;20302;-80
2024/01/24 03:58:30;;;;;;;4.88;4.38;;;;;;;9.73;100.00;99804.97;10439779;28;20048;-79
2024/01/24 04:03:32;;;;;;;6.05;3.95;;;;;;;9.45;100.00;99790.41;10436014;28;20078;-80
2024/01/24 04:08:36;;;;;;;7.22;4.07;;;;;;;9.68;100.00;99817.91;10421897;28;20045;-79
2024/01/24 04:13:42;;;;;;;6.03;5.50;;;;;;;9.82;100.00;99820.28;10438573;28;21190;-79
2024/01/24 04:18:45;;;;;;;7.43;4.45;;;;;;;9.37;100.00;99839.31;10433329;28;20048;-80
2024/01/24 04:23:48;;;;;;;5.70;3.35;;;;;;;9.22;100.00;99867.41;10434565;28;20048;-79
2024/01/24 04:28:52;;;;;;;4.00;3.42;;;;;;;9.36;100.00;99860.91;10455106;28;20048;-78
2024/01/24 04:33:55;;;;;;;3.58;3.28;;;;;;;9.39;100.00;99818.59;10447497;28;20122;-82
2024/01/24 04:38:59;;;;;;;2.63;2.42;;;;;;;9.35;100.00;99853.81;10436681;28;20060;-82
2024/01/24 04:44:04;;;;;;;4.30;1.55;;;;;;;9.42;100.00;99866.59;10446723;28;20523;-78
2024/01/24 04:49:08;;;;;;;2.30;2.10;;;;;;;9.43;100.00;99868.28;10442793;28;20045;-80
2024/01/24 04:54:24;;;;;;;1.40;1.30;;;;;;;9.31;100.00;99847.03;10425473;28;20041;-79
2024/01/24 04:59:29;;;;;;;1.65;0.90;;;;;;;9.03;100.00;99890.38;10445465;28;20435;-80
2024/01/24 05:04:35;;;;;;;0.98;0.50;;;;;;;8.67;100.00;99902.28;10438332;28;20049;-80
2024/01/24 05:09:38;;;;;;;1.33;0.30;;;;;;;8.85;100.00;99843.66;10433519;28;20089;-80
2024/01/24 05:14:43;;;;;;;0.47;0.43;;;;;;;8.97;100.00;99873.97;10443409;28;20103;-80
2024/01/24 05:19:46;;;;;;;4.82;0.70;;;;;;;8.87;100.00;99900.66;10441793;28;20692;-80
2024/01/24 05:24:49;;;;;;;3.58;0.70;;;;;;;9.04;100.00;99892.06;10439062;28;20036;-78
2024/01/24 05:29:53;;;;;;;3.35;0.43;;;;;;;9.13;100.00;99916.41;10442091;28;20071;-79
2024/01/24 05:34:56;;;;;;;4.55;0.95;;;;;;;9.03;100.00;99890.38;10442258;28;20952;-83
2024/01/24 05:39:59;;;;;;;7.47;1.10;;;;;;;9.11;100.00;99916.53;10438248;28;20049;-81
2024/01/24 05:45:05;;;;;;;5.70;1.00;;;;;;;9.06;100.00;99926.78;10456022;28;20071;-82
2024/01/24 05:50:11;;;;;;;6.43;1.40;;;;;;;8.68;100.00;99922.72;10450056;28;20045;-81
2024/01/24 05:55:14;;;;;;;7.78;1.05;;;;;;;8.17;100.00;99933.84;10427014;28;20049;-80
2024/01/24 06:00:19;;;;;;;9.40;2.90;;;;;;;8.09;100.00;99934.47;10439888;28;20048;-80
2024/01/24 06:05:22;;;;;;;6.60;1.75;;;;;;;7.93;100.00;99937.47;10435940;28;20049;-81
2024/01/24 06:10:25;;;;;;;13.43;1.73;;;;;;;8.36;100.00;99976.97;10439859;28;20095;-79
2024/01/24 06:15:30;;;;;;;13.63;1.83;;;;;;;8.18;100.00;99949.81;10432900;28;20684;-80
2024/01/24 06:20:33;;;;;;;8.70;1.88;;;;;;;7.85;100.00;99997.88;10443958;28;20064;-81
2024/01/24 06:25:36;;;;;;;16.50;2.83;;;;;;;7.87;100.00;99995.91;10433639;28;20041;-77
2024/01/24 06:30:40;;;;;;;13.13;2.20;;;;;;;8.06;100.00;100014.94;10437770;28;20040;-82
2024/01/24 06:35:43;;;;;;;20.73;3.10;;;;;;;8.09;100.00;99993.31;10440382;28;20051;-82
2024/01/24 06:40:46;;;;;;;17.13;3.47;;;;;;;7.92;100.00;100004.44;10453272;28;20049;-78
2024/01/24 06:45:50;;;;;;;15.25;3.15;;;;;;;7.81;100.00;100020.44;10442556;28;20508;-83
2024/01/24 06:50:54;;;;;;;21.10;4.82;;;;;;;7.89;100.00;100040.28;10439501;28;20052;-83
2024/01/24 06:55:57;;;;;;;15.65;3.47;;;;;;;8.06;100.00;100055.06;10432467;28;20044;-83
2024/01/24 07:01:01;;;;;;;13.90;3.13;;;;;;;8.40;100.00;100093.50;10435121;28;20072;-81
2024/01/24 07:06:05;;;;;;;22.02;4.70;;;;;;;8.35;100.00;100108.22;10442762;28;20044;-82
2024/01/24 07:11:09;;;;;;;21.15;4.32;;;;;;;8.33;95.76;100076.19;10439824;28;20045;-81
2024/01/24 07:16:13;;;;;;;13.55;4.13;;;;;;;8.58;95.34;100096.63;10447235;28;20625;-82
2024/01/24 07:21:16;;;;;;;24.80;3.95;;;;;;;8.42;92.29;100106.78;10439740;28;20044;-80
2024/01/24 07:26:19;;;;;;;25.95;4.43;;;;;;;8.56;86.94;100136.06;10428000;28;20045;-81
2024/01/24 07:31:23;;;;;;;33.53;5.03;;;;;;;8.63;83.33;100119.50;10434328;28;20048;-79
2024/01/24 07:36:27;;;;;;;21.45;5.40;;;;;;;8.85;80.19;100146.31;10444527;28;20060;-79
2024/01/24 07:41:30;;;;;;;25.30;4.95;;;;;;;9.54;80.84;100159.63;10435068;28;20567;-80
2024/01/24 07:46:36;;;;;;;23.38;5.07;;;;;;;9.17;81.33;100141.13;10443219;28;20852;-80
2024/01/24 07:51:41;;;;;;;22.42;5.63;;;;;;;9.00;80.82;100206.75;10451578;28;20055;-80
2024/01/24 07:56:44;;;;;;;32.28;5.25;;;;;;;9.11;79.54;100146.97;10431555;28;20573;-80
2024/01/24 08:01:49;;;;;;;23.30;4.68;;;;;;;9.24;79.48;100153.09;10430928;28;20547;-81
2024/01/24 08:06:54;;;;;;;27.65;4.65;;;;;;;9.03;79.05;100163.66;10438961;28;20517;-82
2024/01/24 08:11:57;;;;;;;19.90;5.03;;;;;;;9.13;79.42;100161.09;10438017;28;20041;-82
2024/01/24 08:17:05;;;;;;;21.30;4.88;;;;;;;8.93;81.25;100204.66;10447188;28;20045;-82
2024/01/24 08:22:08;;;;;;;36.15;7.07;;;;;;;8.98;90.20;100203.34;10447700;28;20047;-80
2024/01/24 08:27:11;;;;;;;25.05;4.68;;;;;;;8.19;92.09;100178.06;10435518;28;20053;-80
2024/01/24 08:32:16;;;;;;;28.45;5.22;;;;;;;8.50;86.91;100190.06;10456817;28;20044;-80
2024/01/24 08:37:19;;;;;;;19.85;4.07;;;;;;;8.80;82.93;100205.63;10455955;28;21198;-80
2024/01/24 08:42:22;;;;;;;24.27;5.03;;;;;;;8.93;81.49;100215.38;10472041;28;20044;-80
2024/01/24 08:47:26;;;;;;;29.33;5.70;;;;;;;8.97;78.38;100214.19;10462207;28;20045;-80
2024/01/24 08:52:29;;;;;;;26.80;5.38;;;;;;;8.94;77.96;100233.16;10462995;28;20044;-77
2024/01/24 08:57:32;;;;;;;23.15;4.35;;;;;;;9.26;78.96;100225.31;10488968;28;20048;-78
2024/01/24 09:02:36;;;;;;;30.35;4.63;;;;;;;9.42;78.61;100241.91;10488165;28;20059;-80
2024/01/24 09:07:40;;;;;;;27.20;5.32;;;;;;;9.16;79.15;100240.41;10496316;28;20182;-80
2024/01/24 09:12:43;;;;;;;26.77;4.00;;;;;;;8.80;78.39;100227.06;10488534;28;20580;-76
2024/01/24 09:17:48;;;;;;;23.40;5.05;;;;;;;8.74;78.22;100272.19;10477899;28;20144;-79
2024/01/24 09:22:52;;;;;;;29.77;5.47;;;;;;;8.94;77.99;100259.94;10480134;28;20048;-82
2024/01/24 09:27:56;;;;;;;30.55;6.57;;;;;;;8.71;78.19;100273.25;10477302;28;20048;-78
2024/01/24 09:33:01;;;;;;;34.15;5.47;;;;;;;8.98;76.71;100323.91;10439231;28;20436;-79
2024/01/24 09:38:04;;;;;;;26.98;7.03;;;;;;;9.05;76.32;100300.16;10440240;28;21191;-80
2024/01/24 09:43:10;;;;;;;23.20;4.78;;;;;;;8.91;77.14;100338.72;10443087;28;20056;-79
2024/01/24 09:48:16;;;;;;;26.75;4.45;;;;;;;8.78;77.38;100360.22;10444716;28;20531;-80
2024/01/24 09:53:21;;;;;;;37.97;5.78;;;;;;;8.73;78.09;100364.22;10461179;28;20083;-79
2024/01/24 09:58:24;;;;;;;33.25;5.45;;;;;;;8.79;78.67;100385.19;10446225;28;20649;-79
2024/01/24 10:03:31;;;;;;;25.02;6.22;;;;;;;8.56;78.12;100378.84;10460276;28;20614;-80
2024/01/24 10:08:39;;;;;;;22.35;5.70;;;;;;;8.63;77.77;100373.88;10437325;28;20048;-79
2024/01/24 10:13:43;;;;;;;28.15;6.13;;;;;;;8.47;77.84;100379.50;10454103;28;20048;-79
2024/01/24 10:18:48;;;;;;;33.38;6.28;;;;;;;8.77;76.47;100371.03;10446748;28;20045;-79
2024/01/24 10:23:54;;;;;;;31.10;5.80;;;;;;;8.97;75.32;100380.31;10459237;28;20467;-80
2024/01/24 10:28:57;;;;;;;28.65;5.60;;;;;;;8.85;75.66;100384.72;10462789;28;20049;-78
2024/01/24 10:34:04;;;;;;;42.05;7.18;;;;;;;8.98;75.58;100396.25;10451617;28;20052;-80
2024/01/24 10:39:12;;;;;;;23.90;5.00;;;;;;;8.72;75.12;100390.16;10440390;28;20075;-80
2024/01/24 10:44:19;;;;;;;37.60;6.80;;;;;;;8.89;74.31;100410.34;10414951;28;20114;-80
2024/01/24 10:49:24;;;;;;;34.75;6.05;;;;;;;8.49;75.02;100426.59;10414170;28;20056;-79
2024/01/24 10:54:29;;;;;;;33.72;6.15;;;;;;;8.76;73.87;100413.03;10435642;28;20076;-80
2024/01/24 10:59:33;;;;;;;26.40;6.05;;;;;;;8.78;73.58;100388.84;10452255;28;21238;-77
2024/01/24 11:04:40;;;;;;;22.85;5.18;;;;;;;8.49;74.20;100444.50;10465580;28;20516;-80
2024/01/24 11:09:53;;;;;;;31.77;5.65;;;;;;;8.98;73.41;100416.81;10494644;28;20178;-79
2024/01/24 11:15:05;;;;;;;31.63;4.75;;;;;;;8.58;73.78;100425.97;10470379;28;20044;-78
2024/01/24 11:20:11;;;;;;;29.45;6.20;;;;;;;8.63;73.23;100425.59;10490528;28;20051;-79
2024/01/24 11:25:14;;;;;;;30.35;6.20;;;;;;;8.33;74.12;100420.59;10490522;28;20051;-78
2024/01/24 11:30:38;;;;;;;31.55;6.18;;;;;;;8.76;73.75;100438.97;10486645;28;20048;-78
2024/01/24 11:35:45;;;;;;;20.17;4.72;;;;;;;8.60;73.41;100456.13;10480379;28;20048;-80
2024/01/24 11:40:50;;;;;;;24.30;4.93;;;;;;;8.61;72.89;100456.97;10494833;28;20047;-80
2024/01/24 11:45:55;;;;;;;24.30;4.43;;;;;;;8.82;72.94;100460.81;10489693;28;20052;-80
2024/01/24 11:51:00;;;;;;;22.55;4.82;;;;;;;8.64;72.80;100483.56;10485432;28;20051;-80
2024/01/24 11:56:05;;;;;;;24.02;4.38;;;;;;;8.80;72.06;100480.63;10482578;28;20044;-77
2024/01/24 12:01:10;;;;;;;25.42;4.70;;;;;;;8.94;71.93;100501.94;10465749;28;20097;-79
2024/01/24 12:06:15;;;;;;;27.95;5.00;;;;;;;8.67;72.85;100474.47;10494227;28;20048;-78
2024/01/24 12:11:18;;;;;;;25.73;4.97;;;;;;;9.14;71.70;100473.69;10507439;28;20114;-79
2024/01/24 12:16:22;;;;;;;27.88;5.68;;;;;;;8.75;72.01;100489.00;10493974;28;20055;-78
2024/01/24 12:21:27;;;;;;;29.23;4.70;;;;;;;8.72;72.25;100504.44;10493429;28;20055;-80
2024/01/24 12:26:31;;;;;;;23.30;4.03;;;;;;;8.64;73.61;100502.31;10479523;28;20055;-79
2024/01/24 12:31:38;;;;;;;29.90;5.70;;;;;;;8.75;72.72;100496.16;10478720;28;20059;-82
2024/01/24 12:36:45;;;;;;;28.83;4.78;;;;;;;8.81;72.60;100507.31;10483294;28;20051;-81
2024/01/24 12:41:48;;;;;;;25.20;5.25;;;;;;;8.68;72.63;100478.84;10488420;28;20055;-81
2024/01/24 12:46:57;;;;;;;24.58;4.82;;;;;;;8.52;73.33;100546.84;10471936;28;20431;-79
2024/01/24 12:52:01;;;;;;;27.58;5.30;;;;;;;8.99;71.99;100539.09;10481748;28;20837;-79
2024/01/24 12:57:05;;;;;;;41.83;5.63;;;;;;;8.79;72.85;100541.38;10492113;28;20202;-79
2024/01/24 13:02:09;;;;;;;32.15;6.00;;;;;;;8.93;72.18;100575.22;10490966;28;20055;-78
2024/01/24 13:07:13;;;;;;;38.92;6.43;;;;;;;8.66;72.60;100563.78;10491347;28;21205;-81
2024/01/24 13:12:17;;;;;;;22.95;5.00;;;;;;;8.81;72.95;100594.84;10513487;28;21179;-79
2024/01/24 13:17:23;;;;;;;23.80;5.18;;;;;;;8.57;73.51;100570.66;10493241;28;20122;-79
2024/01/24 13:22:29;;;;;;;28.05;5.47;;;;;;;8.53;73.68;100571.81;10473281;28;20047;-80
2024/01/24 13:27:32;;;;;;;29.27;5.85;;;;;;;8.56;74.28;100618.00;10495768;28;20039;-78
2024/01/24 13:32:35;;;;;;;21.98;4.80;;;;;;;8.60;74.67;100613.28;10487077;28;20550;-79
2024/01/24 13:37:40;;;;;;;38.17;5.45;;;;;;;8.56;74.51;100639.41;10493928;28;20048;-79
2024/01/24 13:42:43;;;;;;;35.25;6.72;;;;;;;8.27;74.71;100630.66;10472974;28;20048;-80
2024/01/24 13:47:46;;;;;;;31.65;5.20;;;;;;;8.84;74.29;100641.03;10479046;28;20695;-79
2024/01/24 13:52:50;;;;;;;26.45;4.35;;;;;;;8.54;75.40;100649.38;10473104;28;20609;-80
2024/01/24 13:57:57;;;;;;;23.73;5.13;;;;;;;8.12;76.41;100663.81;10468429;28;20111;-78
2024/01/24 14:03:00;;;;;;;27.40;5.20;;;;;;;8.35;76.07;100667.59;10440284;28;20041;-78
2024/01/24 14:08:05;;;;;;;23.08;4.57;;;;;;;8.26;76.14;100682.47;10435521;28;20099;-78
2024/01/24 14:13:08;;;;;;;26.52;5.30;;;;;;;8.07;76.76;100647.19;10419388;28;20056;-80
2024/01/24 14:18:11;;;;;;;23.17;3.50;;;;;;;8.53;75.26;100689.63;10488913;28;21959;-80
2024/01/24 14:23:16;;;;;;;25.63;4.88;;;;;;;8.24;77.14;100707.63;10448374;28;20123;-80
2024/01/24 14:28:19;;;;;;;27.98;5.07;;;;;;;8.35;79.55;100729.16;10443478;28;20048;-80
2024/01/24 14:33:22;;;;;;;33.17;5.03;;;;;;;7.84;82.84;100747.66;10440105;28;20040;-78
2024/01/24 14:38:37;;;;;;;33.85;6.35;;;;;;;8.00;80.63;100753.72;10466401;28;20052;-79
2024/01/24 14:43:40;;;;;;;29.15;5.05;;;;;;;8.16;77.87;100757.13;10483814;28;20056;-79
2024/01/24 14:48:43;;;;;;;24.13;4.85;;;;;;;7.97;77.06;100769.97;10474587;28;20579;-80
2024/01/24 14:53:48;;;;;;;24.75;3.97;;;;;;;8.19;76.98;100793.53;10473986;28;20056;-80
2024/01/24 14:58:51;;;;;;;18.60;4.28;;;;;;;7.99;76.40;100820.72;10445978;28;20078;-81
2024/01/24 15:03:57;;;;;;;25.60;4.00;;;;;;;8.40;75.56;100836.81;10435779;28;20054;-80
2024/01/24 15:09:01;;;;;;;23.20;3.92;;;;;;;8.07;76.02;100832.66;10461434;28;21108;-82
2024/01/24 15:14:07;;;;;;;22.50;4.10;;;;;;;8.20;75.04;100839.91;10456836;28;20170;-81
2024/01/24 15:19:10;;;;;;;25.20;3.90;;;;;;;8.10;74.47;100834.28;10457517;28;20056;-78
2024/01/24 15:24:14;;;;;;;28.92;5.22;;;;;;;8.32;73.07;100847.16;10499588;28;20144;-78
2024/01/24 15:29:18;;;;;;;26.20;4.70;;;;;;;8.14;73.92;100858.06;10444966;28;20241;-80
2024/01/24 15:34:21;;;;;;;24.92;4.32;;;;;;;8.41;71.94;100878.69;10466789;28;20048;-81
2024/01/24 15:39:25;;;;;;;22.25;3.78;;;;;;;8.39;71.79;100884.16;10457886;28;20521;-80
2024/01/24 15:44:28;;;;;;;28.45;4.72;;;;;;;8.00;74.24;100884.81;10453603;28;20065;-80
2024/01/24 15:49:32;;;;;;;23.77;4.20;;;;;;;8.22;72.40;100884.34;10432773;28;20535;-80
2024/01/24 15:54:39;;;;;;;26.50;4.65;;;;;;;8.24;72.43;100885.13;10440905;28;20511;-78
2024/01/24 15:59:42;;;;;;;27.88;5.00;;;;;;;8.33;72.55;100910.44;10439498;28;20045;-82
2024/01/24 16:04:45;;;;;;;23.33;4.07;;;;;;;7.86;73.95;100916.94;10439695;28;20049;-80
2024/01/24 16:09:53;;;;;;;25.95;3.90;;;;;;;8.40;72.30;100925.16;10447572;28;20055;-81
2024/01/24 16:14:56;;;;;;;21.15;4.45;;;;;;;8.46;71.80;100927.47;10466019;28;20052;-79
2024/01/24 16:19:59;;;;;;;22.80;3.85;;;;;;;8.28;72.56;100939.31;10453577;28;20051;-81
2024/01/24 16:25:04;;;;;;;27.17;4.50;;;;;;;7.92;74.39;100945.97;10444684;28;20056;-80
2024/01/24 16:30:09;;;;;;;31.83;4.88;;;;;;;8.10;73.66;100957.38;10461801;28;20045;-81
2024/01/24 16:35:13;;;;;;;16.25;3.70;;;;;;;7.77;74.32;100989.72;10441334;28;20535;-81
2024/01/24 16:40:18;;;;;;;20.70;4.20;;;;;;;8.12;74.19;100969.72;10463746;28;20101;-80
2024/01/24 16:45:21;;;;;;;32.13;5.43;;;;;;;8.09;74.31;100977.94;10462733;28;20090;-81
2024/01/24 16:50:24;;;;;;;23.50;3.88;;;;;;;7.98;74.30;100985.75;10465320;28;20138;-80
2024/01/24 16:55:30;;;;;;;18.20;3.60;;;;;;;8.12;73.83;101009.84;10460431;28;20055;-81
2024/01/24 17:00:33;;;;;;;26.15;4.40;;;;;;;8.06;74.54;101004.00;10460583;28;20053;-80
2024/01/24 17:05:36;;;;;;;30.55;5.43;;;;;;;7.93;74.68;101017.28;10469412;28;20051;-81
2024/01/24 17:10:40;;;;;;;25.60;4.25;;;;;;;8.06;74.71;101022.72;10495743;28;20059;-79
2024/01/24 17:15:44;;;;;;;27.63;5.18;;;;;;;7.95;75.30;101028.72;10484891;28;20059;-79
2024/01/24 17:20:47;;;;;;;29.10;5.80;;;;;;;7.70;75.77;101053.38;10468201;28;20064;-80
2024/01/24 17:25:52;;;;;;;26.45;4.78;;;;;;;7.85;74.57;101048.97;10462099;28;20040;-79
2024/01/24 17:30:55;;;;;;;26.70;3.72;;;;;;;7.87;75.50;101045.25;10490953;28;20045;-78
2024/01/24 17:35:58;;;;;;;22.05;3.25;;;;;;;8.02;75.37;101064.00;10461305;28;20059;-81
2024/01/24 17:41:03;;;;;;;20.70;3.97;;;;;;;7.91;75.08;101070.84;10463295;28;20051;-80
2024/01/24 17:46:06;;;;;;;31.33;6.28;;;;;;;7.91;75.70;101062.81;10460095;28;20044;-78
2024/01/24 17:51:09;;;;;;;29.83;4.63;;;;;;;8.03;75.64;101074.59;10471684;28;20122;-78
2024/01/24 17:56:14;;;;;;;23.38;5.03;;;;;;;7.90;75.77;101074.50;10508716;28;20045;-78
2024/01/24 18:01:17;;;;;;;24.30;3.70;;;;;;;8.00;75.53;101081.97;10499578;28;20117;-79
2024/01/24 18:06:21;;;;;;;22.77;4.28;;;;;;;8.01;75.44;101089.91;10490821;28;20032;-80
2024/01/24 18:11:26;;;;;;;24.27;4.40;;;;;;;7.64;77.14;101073.31;10472929;28;20127;-81
2024/01/24 18:16:29;;;;;;;22.73;4.43;;;;;;;7.33;78.16;101089.41;10470228;28;20048;-82
2024/01/24 18:21:32;;;;;;;18.10;3.30;;;;;;;7.68;76.35;101103.44;10466072;28;20075;-79
2024/01/24 18:26:37;;;;;;;24.75;4.68;;;;;;;7.92;75.97;101096.63;10451953;28;20427;-81
2024/01/24 18:31:40;;;;;;;31.95;4.47;;;;;;;7.58;78.12;101102.25;10461667;28;20060;-80
2024/01/24 18:36:43;;;;;;;25.67;4.75;;;;;;;7.10;80.01;101120.91;10451790;28;20072;-80
2024/01/24 18:41:47;;;;;;;20.35;4.32;;;;;;;7.28;78.63;101127.94;10454053;28;20182;-81
2024/01/24 18:46:52;;;;;;;28.40;5.38;;;;;;;7.58;77.83;101140.53;10458531;28;20052;-81
2024/01/24 18:51:55;;;;;;;23.75;4.38;;;;;;;7.70;77.99;101145.16;10452791;28;20063;-81
2024/01/24 18:57:00;;;;;;;22.40;4.53;;;;;;;7.30;80.00;101145.72;10451502;28;20054;-79
2024/01/24 19:02:03;;;;;;;37.47;5.57;;;;;;;7.54;78.65;101138.09;10455528;28;20048;-79
2024/01/24 19:07:07;;;;;;;21.75;3.28;;;;;;;7.36;80.29;101145.38;10457325;28;20086;-81
2024/01/24 19:12:11;;;;;;;21.73;3.90;;;;;;;7.35;80.86;101135.59;10449835;28;20074;-81
2024/01/24 19:17:15;;;;;;;23.75;5.55;;;;;;;7.41;79.92;101159.34;10464458;28;20063;-81
2024/01/24 19:22:18;;;;;;;32.80;5.95;;;;;;;7.29;81.88;101150.16;10461623;28;20052;-80
2024/01/24 19:27:24;;;;;;;28.08;4.18;;;;;;;7.06;81.85;101162.97;10447325;28;20045;-81
2024/01/24 19:32:27;;;;;;;25.33;4.85;;;;;;;7.27;81.67;101157.44;10460182;28;20044;-78
2024/01/24 19:37:32;;;;;;;25.65;5.85;;;;;;;7.28;82.13;101162.66;10465791;28;20048;-81
2024/01/24 19:42:36;;;;;;;20.05;3.95;;;;;;;7.36;82.08;101150.72;10448053;28;20045;-80
2024/01/24 19:47:40;;;;;;;59.97;7.82;;;;;;;7.32;83.40;101159.81;10483490;28;20063;-81
2024/01/24 19:52:43;;;;;;;20.33;4.75;;;;;;;7.12;84.79;101172.47;10491677;28;20040;-80
2024/01/24 19:57:47;;;;;;;25.65;4.05;;;;;;;6.79;87.02;101164.41;10485725;28;20040;-80
2024/01/24 20:02:50;;;;;;;25.38;5.05;;;;;;;6.83;87.00;101155.31;10497871;28;20051;-80
2024/01/24 20:07:53;;;;;;;43.58;7.18;;;;;;;7.39;85.32;101166.56;10491679;28;20217;-78
2024/01/24 20:12:59;;;;;;;34.88;6.30;;;;;;;7.19;85.35;101162.34;10467482;28;20044;-80
2024/01/24 20:18:03;;;;;;;28.80;5.22;;;;;;;7.03;85.62;101187.19;10461697;28;20052;-79
2024/01/24 20:23:07;;;;;;;39.80;5.97;;;;;;;7.15;84.22;101183.00;10469139;28;20048;-79
2024/01/24 20:28:11;;;;;;;37.20;5.30;;;;;;;7.09;84.85;101175.31;10465551;28;20058;-78
2024/01/24 20:33:14;;;;;;;39.08;7.78;;;;;;;7.26;85.73;101190.44;10468246;28;20051;-81
2024/01/24 20:38:19;;;;;;;38.70;6.50;;;;;;;7.00;86.06;101182.00;10450510;28;20517;-81
2024/01/24 20:43:23;;;;;;;32.95;5.35;;;;;;;7.01;85.66;101185.53;10434874;28;20049;-80
2024/01/24 20:48:26;;;;;;;32.92;5.95;;;;;;;7.35;82.18;101194.41;10465474;28;20131;-77
2024/01/24 20:53:29;;;;;;;26.65;4.43;;;;;;;7.06;82.51;101188.84;10473960;28;20044;-83
2024/01/24 20:58:33;;;;;;;28.88;5.70;;;;;;;7.19;82.28;101215.78;10473287;28;20109;-80
2024/01/24 21:03:38;;;;;;;36.03;7.63;;;;;;;7.10;82.80;101214.44;10453871;28;20048;-79
2024/01/24 21:08:42;;;;;;;33.65;5.55;;;;;;;7.15;82.19;101208.84;10460661;28;20111;-82
2024/01/24 21:13:47;;;;;;;29.05;6.20;;;;;;;7.42;82.13;101204.69;10450802;28;20048;-81
2024/01/24 21:18:50;;;;;;;38.20;6.55;;;;;;;7.47;83.20;101223.16;10459671;28;20128;-81
2024/01/24 21:23:53;;;;;;;28.33;4.90;;;;;;;7.39;83.75;101239.59;10457942;28;20602;-79
2024/01/24 21:28:58;;;;;;;34.55;6.63;;;;;;;7.25;85.30;101234.16;10456910;28;20036;-82
2024/01/24 21:34:01;;;;;;;28.70;5.70;;;;;;;7.08;85.61;101239.53;10464597;28;20052;-80
2024/01/24 21:39:07;;;;;;;39.50;6.07;;;;;;;7.17;85.70;101229.19;10487720;28;20039;-80
2024/01/24 21:44:12;;;;;;;34.20;6.93;;;;;;;7.29;84.67;101238.38;10443576;28;20055;-78
2024/01/24 21:49:14;;;;;;;30.83;5.55;;;;;;;6.98;87.01;101248.00;10450163;28;20055;-79
2024/01/24 21:54:19;;;;;;;37.80;6.15;;;;;;;7.06;86.98;101234.25;10479920;28;20165;-80
2024/01/24 21:59:23;;;;;;;26.75;5.60;;;;;;;7.14;86.39;101255.22;10436586;28;20437;-80
2024/01/24 22:04:26;;;;;;;40.28;5.18;;;;;;;6.77;87.33;101254.44;10433653;28;20061;-80
2024/01/24 22:09:30;;;;;;;33.20;5.13;;;;;;;6.98;86.18;101237.31;10432616;28;20059;-82
2024/01/24 22:14:34;;;;;;;39.33;6.97;;;;;;;6.79;87.33;101237.38;10435566;28;20149;-80
2024/01/24 22:19:37;;;;;;;22.40;4.63;;;;;;;7.09;85.67;101246.59;10479355;28;20052;-82
2024/01/24 22:24:40;;;;;;;32.70;6.30;;;;;;;6.99;86.39;101241.75;10468745;28;20056;-80
2024/01/24 22:29:45;;;;;;;28.70;5.00;;;;;;;7.08;84.67;101250.22;10468096;28;20047;-79
2024/01/24 22:34:48;;;;;;;30.38;5.35;;;;;;;6.96;85.87;101255.22;10439920;28;20094;-81
2024/01/24 22:39:52;;;;;;;32.10;4.80;;;;;;;6.71;86.88;101265.44;10437602;28;20079;-79
2024/01/24 22:44:56;;;;;;;32.15;4.82;;;;;;;7.32;83.44;101253.38;10422919;28;20036;-81
2024/01/24 22:50:00;;;;;;;38.53;6.00;;;;;;;7.13;85.18;101254.38;10434300;28;20056;-80
2024/01/24 22:55:03;;;;;;;35.90;4.55;;;;;;;6.73;85.48;101242.19;10437254;28;20060;-79
2024/01/24 23:00:11;;;;;;;37.72;6.70;;;;;;;6.92;85.47;101269.72;10434332;28;20048;-77
2024/01/24 23:05:15;;;;;;;33.13;5.80;;;;;;;6.83;86.33;101270.16;10432501;28;20045;-78
2024/01/24 23:10:18;;;;;;;23.10;4.75;;;;;;;7.12;84.05;101273.16;10442275;28;20072;-79
2024/01/24 23:15:23;;;;;;;34.05;5.97;;;;;;;7.21;84.07;101273.53;10425379;28;20048;-78
2024/01/24 23:20:26;;;;;;;24.65;4.40;;;;;;;7.03;83.74;101283.38;10442262;28;20047;-81